createdAt,value
2023-01-30T00:01:56.829Z,99145.06
2023-01-30T00:04:24.844Z,99137.48
2023-01-30T00:06:52.772Z,99134.54
2023-01-30T00:09:20.666Z,99129.34
2023-01-30T00:11:48.552Z,99123.27
2023-01-30T00:14:16.417Z,99117.53
2023-01-30T00:16:44.360Z,99110.95
2023-01-30T00:19:12.257Z,99100.23
2023-01-30T00:21:40.121Z,99099.70
2023-01-30T00:24:08.362Z,99094.00
2023-01-30T00:26:36.248Z,99080.89
2023-01-30T00:29:04.117Z,99070.19
2023-01-30T00:31:32.120Z,99062.42
2023-01-30T00:33:59.987Z,99062.44
2023-01-30T00:36:27.888Z,99059.36
2023-01-30T00:38:58.247Z,99052.99
2023-01-30T00:41:46.246Z,99050.77
2023-01-30T00:44:32.768Z,99043.17
2023-01-30T00:47:06.922Z,99033.52
2023-01-30T00:49:36.909Z,99028.16
2023-01-30T00:52:05.356Z,99017.10
2023-01-30T00:54:33.524Z,99005.54
2023-01-30T00:57:01.472Z,98997.94
2023-01-30T00:59:29.332Z,99002.25
2023-01-30T01:01:57.235Z,99009.50
2023-01-30T01:04:25.425Z,99005.89
2023-01-30T01:06:53.705Z,98995.20
2023-01-30T01:09:21.631Z,98988.50
2023-01-30T01:11:49.517Z,98984.71
2023-01-30T01:14:17.416Z,98983.52
2023-01-30T01:16:45.462Z,98978.54
2023-01-30T01:19:14.122Z,98978.02
2023-01-30T01:21:41.977Z,98977.84
2023-01-30T01:24:13.158Z,98977.49
2023-01-30T01:26:42.880Z,98975.41
2023-01-30T01:29:16.495Z,98974.35
2023-01-30T01:31:44.646Z,98971.38
2023-01-30T01:34:13.011Z,98967.39
2023-01-30T01:36:57.345Z,98967.34
2023-01-30T01:39:45.258Z,98962.96
2023-01-30T01:42:13.862Z,98953.75
2023-01-30T01:45:03.150Z,98943.67
2023-01-30T01:47:33.742Z,98935.48
2023-01-30T01:50:02.966Z,98929.73
2023-01-30T01:52:31.250Z,98923.12
2023-01-30T01:55:03.065Z,98921.49
2023-01-30T01:57:37.091Z,98916.58
2023-01-30T02:00:11.618Z,98917.56
2023-01-30T02:02:47.954Z,98908.67
2023-01-30T02:05:17.826Z,98896.52
2023-01-30T02:08:01.210Z,98894.55
2023-01-30T02:10:45.381Z,98892.89
2023-01-30T02:13:13.230Z,98880.75
2023-01-30T02:15:41.462Z,98872.42
2023-01-30T02:18:10.388Z,98864.96
2023-01-30T02:21:17.573Z,98852.02
2023-01-30T02:24:04.579Z,98840.13
2023-01-30T02:27:01.100Z,98831.19
2023-01-30T02:29:51.576Z,98820.20
2023-01-30T02:32:47.051Z,98815.41
2023-01-30T02:35:21.037Z,98809.41
2023-01-30T02:38:18.306Z,98804.09
2023-01-30T02:41:08.810Z,98800.11
2023-01-30T02:43:42.719Z,98801.27
2023-01-30T02:46:20.383Z,98792.54
2023-01-30T02:49:02.347Z,98777.29
2023-01-30T02:51:33.914Z,98769.83
2023-01-30T02:54:02.010Z,98768.28
2023-01-30T02:56:29.867Z,98760.31
2023-01-30T02:59:06.950Z,98752.86
2023-01-30T03:01:44.998Z,98748.55
2023-01-30T03:04:31.345Z,98755.11
2023-01-30T03:07:20.711Z,98754.05
2023-01-30T03:10:26.063Z,98743.89
2023-01-30T03:13:11.538Z,98737.20
2023-01-30T03:15:49.376Z,98741.89
2023-01-30T03:18:19.136Z,98738.63
2023-01-30T03:20:47.353Z,98736.36
2023-01-30T03:23:15.376Z,98730.08
2023-01-30T03:25:45.581Z,98723.61
2023-01-30T03:28:16.742Z,98717.48
2023-01-30T03:30:44.970Z,98718.77
2023-01-30T03:33:13.065Z,98719.38
2023-01-30T03:35:43.248Z,98719.80
2023-01-30T03:38:14.674Z,98712.44
2023-01-30T03:40:42.736Z,98698.21
2023-01-30T03:43:10.761Z,98695.77
2023-01-30T03:45:38.679Z,98697.10
2023-01-30T03:48:06.633Z,98703.61
2023-01-30T03:50:35.707Z,98704.25
2023-01-30T03:53:03.604Z,98695.55
2023-01-30T03:55:31.454Z,98689.09
2023-01-30T03:57:59.572Z,98681.39
2023-01-30T04:00:29.924Z,98679.09
2023-01-30T04:02:59.126Z,98671.41
2023-01-30T04:05:27.535Z,98655.45
2023-01-30T04:08:00.187Z,98648.29
2023-01-30T04:10:28.352Z,98629.36
2023-01-30T04:12:56.449Z,98610.81
2023-01-30T04:15:24.423Z,98615.27
2023-01-30T04:18:10.985Z,98605.91
2023-01-30T04:20:47.707Z,98600.86
2023-01-30T04:23:16.449Z,98599.83
2023-01-30T04:25:46.934Z,98591.90
2023-01-30T04:28:16.575Z,98592.63
2023-01-30T04:30:45.541Z,98583.02
2023-01-30T04:33:45.957Z,98579.79
2023-01-30T04:36:13.979Z,98572.68
2023-01-30T04:38:42.073Z,98564.35
2023-01-30T04:41:09.995Z,98555.51
2023-01-30T04:43:40.947Z,98544.95
2023-01-30T04:46:27.182Z,98544.24
2023-01-30T04:48:55.039Z,98539.23
2023-01-30T04:51:22.971Z,98532.80
2023-01-30T04:53:52.209Z,98527.08
2023-01-30T04:56:20.393Z,98522.08
2023-01-30T04:58:49.357Z,98528.66
2023-01-30T05:01:30.951Z,98524.66
2023-01-30T05:03:59.653Z,98525.91
2023-01-30T05:06:28.204Z,98523.15
2023-01-30T05:08:57.041Z,98524.39
2023-01-30T05:11:27.117Z,98536.25
2023-01-30T05:13:55.505Z,98533.91
2023-01-30T05:16:23.694Z,98534.80
2023-01-30T05:18:51.605Z,98537.95
2023-01-30T05:21:23.306Z,98535.51
2023-01-30T05:23:53.134Z,98537.36
2023-01-30T05:26:22.248Z,98531.95
2023-01-30T05:28:58.294Z,98527.42
2023-01-30T05:31:26.254Z,98518.36
2023-01-30T05:33:54.232Z,98510.01
2023-01-30T05:36:23.530Z,98497.17
2023-01-30T05:38:51.437Z,98500.91
2023-01-30T05:41:19.706Z,98500.67
2023-01-30T05:43:51.077Z,98494.06
2023-01-30T05:46:19.582Z,98470.30
2023-01-30T05:48:47.937Z,98467.83
2023-01-30T05:51:21.398Z,98466.34
2023-01-30T05:53:49.479Z,98460.86
2023-01-30T05:56:17.615Z,98447.92
2023-01-30T05:58:51.661Z,98432.26
2023-01-30T06:01:20.263Z,98424.04
2023-01-30T06:03:48.221Z,98417.73
2023-01-30T06:06:16.429Z,98412.77
2023-01-30T06:08:44.852Z,98414.42
2023-01-30T06:11:17.311Z,98410.30
2023-01-30T06:13:45.737Z,98410.17
2023-01-30T06:16:15.698Z,98413.80
2023-01-30T06:18:45.436Z,98417.15
2023-01-30T06:21:15.232Z,98416.16
2023-01-30T06:23:43.584Z,98423.24
2023-01-30T06:26:11.578Z,98425.33
2023-01-30T06:28:39.559Z,98422.70
2023-01-30T06:31:08.934Z,98415.35
2023-01-30T06:33:37.245Z,98398.20
2023-01-30T06:36:05.401Z,98388.51
2023-01-30T06:38:33.377Z,98384.23
2023-01-30T06:41:01.897Z,98388.33
2023-01-30T06:43:29.802Z,98384.73
2023-01-30T06:45:59.809Z,98382.80
2023-01-30T06:48:28.048Z,98376.33
2023-01-30T06:50:56.009Z,98376.02
2023-01-30T06:53:30.271Z,98374.23
2023-01-30T06:55:59.746Z,98371.43
2023-01-30T06:58:28.086Z,98365.58
2023-01-30T07:00:56.029Z,98361.28
2023-01-30T07:03:24.232Z,98362.80
2023-01-30T07:05:52.340Z,98363.98
2023-01-30T07:08:20.696Z,98356.34
2023-01-30T07:10:49.618Z,98351.86
2023-01-30T07:13:17.527Z,98346.98
2023-01-30T07:15:46.681Z,98342.45
2023-01-30T07:18:14.587Z,98330.44
2023-01-30T07:20:46.819Z,98321.92
2023-01-30T07:23:14.829Z,98318.46
2023-01-30T07:25:42.725Z,98312.66
2023-01-30T07:28:10.755Z,98312.43
2023-01-30T07:30:38.780Z,98307.11
2023-01-30T07:33:06.917Z,98305.29
2023-01-30T07:35:36.899Z,98303.77
2023-01-30T07:38:05.931Z,98299.81
2023-01-30T07:40:34.097Z,98297.23
2023-01-30T07:43:07.257Z,98299.02
2023-01-30T07:45:39.031Z,98301.45
2023-01-30T07:48:08.166Z,98312.42
2023-01-30T07:50:36.584Z,98312.30
2023-01-30T07:53:05.640Z,98306.27
2023-01-30T07:55:34.708Z,98311.20
2023-01-30T07:58:03.302Z,98309.92
2023-01-30T08:00:31.733Z,98306.25
2023-01-30T08:02:59.932Z,98300.77
2023-01-30T08:05:27.928Z,98299.61
2023-01-30T08:07:56.806Z,98298.36
2023-01-30T08:10:24.947Z,98293.46
2023-01-30T08:12:53.088Z,98289.02
2023-01-30T08:15:22.851Z,98283.38
2023-01-30T08:17:57.753Z,98275.27
2023-01-30T08:20:27.411Z,98271.15
2023-01-30T08:22:55.839Z,98274.00
2023-01-30T08:25:24.055Z,98264.63
2023-01-30T08:27:52.350Z,98264.29
2023-01-30T08:30:21.407Z,98264.16
2023-01-30T08:32:50.039Z,98261.16
2023-01-30T08:35:17.944Z,98253.38
2023-01-30T08:37:45.991Z,98252.23
2023-01-30T08:40:14.812Z,98255.30
2023-01-30T08:42:45.709Z,98253.05
2023-01-30T08:45:14.528Z,98250.56
2023-01-30T08:47:42.554Z,98250.52
2023-01-30T08:50:11.027Z,98249.81
2023-01-30T08:52:39.049Z,98258.13
2023-01-30T08:55:07.319Z,98257.00
2023-01-30T08:57:35.890Z,98255.92
2023-01-30T09:00:04.910Z,98254.81
2023-01-30T09:02:32.996Z,98259.20
2023-01-30T09:05:00.997Z,98261.00
2023-01-30T09:07:28.940Z,98261.10
2023-01-30T09:09:56.908Z,98257.46
2023-01-30T09:12:25.429Z,98255.95
2023-01-30T09:14:55.608Z,98260.30
2023-01-30T09:17:24.211Z,98265.84
2023-01-30T09:19:52.136Z,98266.85
2023-01-30T09:22:20.028Z,98264.34
2023-01-30T09:24:47.978Z,98258.23
2023-01-30T09:27:15.813Z,98249.38
2023-01-30T09:29:45.245Z,98247.67
2023-01-30T09:32:13.385Z,98246.85
2023-01-30T09:34:41.185Z,98242.80
2023-01-30T09:37:09.079Z,98246.28
2023-01-30T09:39:36.991Z,98237.14
2023-01-30T09:42:04.834Z,98225.96
2023-01-30T09:44:53.838Z,98231.14
2023-01-30T09:47:24.540Z,98229.30
2023-01-30T09:49:58.276Z,98222.05
2023-01-30T09:52:48.093Z,98218.25
2023-01-30T09:55:23.061Z,98216.80
2023-01-30T09:57:52.007Z,98214.45
2023-01-30T10:00:33.594Z,98214.67
2023-01-30T10:03:12.963Z,98217.91
2023-01-30T10:06:00.682Z,98211.53
2023-01-30T10:08:38.907Z,98214.44
2023-01-30T10:11:21.659Z,98211.61
2023-01-30T10:14:01.498Z,98216.98
2023-01-30T10:16:54.419Z,98217.59
2023-01-30T10:19:47.196Z,98206.59
2023-01-30T10:22:33.012Z,98212.65
2023-01-30T10:25:12.646Z,98217.85
2023-01-30T10:27:49.604Z,98215.27
2023-01-30T10:30:18.372Z,98216.63
2023-01-30T10:32:55.973Z,98220.90
2023-01-30T10:35:29.549Z,98218.38
2023-01-30T10:38:07.445Z,98205.14
2023-01-30T10:40:53.524Z,98201.37
2023-01-30T10:43:31.543Z,98193.36
2023-01-30T10:46:14.731Z,98195.48
2023-01-30T10:48:46.260Z,98189.26
2023-01-30T10:51:23.621Z,98183.89
2023-01-30T10:54:02.308Z,98187.02
2023-01-30T10:56:42.792Z,98186.14
2023-01-30T10:59:23.694Z,98183.02
2023-01-30T11:02:10.550Z,98184.13
2023-01-30T11:04:44.136Z,98177.38
2023-01-30T11:07:13.626Z,98169.04
2023-01-30T11:09:44.525Z,98164.78
2023-01-30T11:12:13.405Z,98166.74
2023-01-30T11:14:52.163Z,98158.94
2023-01-30T11:17:28.066Z,98152.16
2023-01-30T11:19:57.675Z,98148.61
2023-01-30T11:22:27.090Z,98137.23
2023-01-30T11:25:05.079Z,98136.45
2023-01-30T11:27:34.862Z,98125.52
2023-01-30T11:30:18.208Z,98118.47
2023-01-30T11:32:49.057Z,98102.61
2023-01-30T11:35:24.419Z,98092.48
2023-01-30T11:37:53.544Z,98098.05
2023-01-30T11:40:27.949Z,98102.09
2023-01-30T11:43:03.289Z,98111.01
2023-01-30T11:45:37.885Z,98115.10
2023-01-30T11:48:31.501Z,98112.57
2023-01-30T11:51:06.045Z,98107.58
2023-01-30T11:53:39.255Z,98104.06
2023-01-30T11:56:25.906Z,98100.58
2023-01-30T11:59:00.269Z,98090.67
2023-01-30T12:01:34.938Z,98097.86
2023-01-30T12:04:08.229Z,98092.52
2023-01-30T12:06:39.337Z,98095.22
2023-01-30T12:09:34.813Z,98087.62
2023-01-30T12:12:03.292Z,98086.25
2023-01-30T12:14:31.034Z,98083.56
2023-01-30T12:17:09.318Z,98083.66
2023-01-30T12:19:58.444Z,98077.20
2023-01-30T12:23:03.037Z,98077.34
2023-01-30T12:25:49.621Z,98080.63
2023-01-30T12:28:43.453Z,98080.45
2023-01-30T12:31:22.733Z,98075.94
2023-01-30T12:33:50.817Z,98078.30
2023-01-30T12:36:53.976Z,98079.66
2023-01-30T12:39:40.728Z,98068.05
2023-01-30T12:42:44.114Z,98068.55
2023-01-30T12:45:21.082Z,98065.29
2023-01-30T12:48:18.259Z,98062.60
2023-01-30T12:51:37.242Z,98060.98
2023-01-30T12:54:42.402Z,98064.55
2023-01-30T12:57:36.011Z,98065.40
2023-01-30T13:00:37.702Z,98074.47
2023-01-30T13:03:43.841Z,98076.81
2023-01-30T13:06:54.980Z,98077.77
2023-01-30T13:09:36.694Z,98080.11
2023-01-30T13:12:15.777Z,98083.29
2023-01-30T13:14:57.433Z,98085.02
2023-01-30T13:17:44.636Z,98078.67
2023-01-30T13:20:17.744Z,98078.67
2023-01-30T13:22:51.731Z,98067.91
2023-01-30T13:25:28.912Z,98060.39
2023-01-30T13:28:02.453Z,98058.32
2023-01-30T13:30:32.082Z,98052.86
2023-01-30T13:33:06.927Z,98054.45
2023-01-30T13:35:47.869Z,98061.36
2023-01-30T13:38:21.183Z,98059.20
2023-01-30T13:40:54.395Z,98056.00
2023-01-30T13:43:28.569Z,98063.00
2023-01-30T13:46:01.648Z,98054.45
2023-01-30T13:48:51.020Z,98059.23
2023-01-30T13:51:52.614Z,98061.52
2023-01-30T13:54:32.514Z,98056.38
2023-01-30T13:57:23.217Z,98058.95
2023-01-30T14:00:28.981Z,98060.00
2023-01-30T14:03:05.968Z,98066.20
2023-01-30T14:05:52.274Z,98066.41
2023-01-30T14:08:26.986Z,98070.13
2023-01-30T14:10:56.730Z,98072.80
2023-01-30T14:13:26.461Z,98069.12
2023-01-30T14:16:12.488Z,98071.79
2023-01-30T14:18:40.362Z,98075.68
2023-01-30T14:21:17.160Z,98084.98
2023-01-30T14:24:00.608Z,98082.92
2023-01-30T14:26:50.534Z,98089.84
2023-01-30T14:29:43.120Z,98093.95
2023-01-30T14:32:17.477Z,98088.05
2023-01-30T14:35:09.613Z,98076.52
2023-01-30T14:37:42.085Z,98077.48
2023-01-30T14:40:21.803Z,98076.52
2023-01-30T14:43:23.655Z,98072.63
2023-01-30T14:46:03.269Z,98069.51
2023-01-30T14:48:53.279Z,98059.85
2023-01-30T14:51:27.056Z,98065.63
2023-01-30T14:54:10.949Z,98067.96
2023-01-30T14:56:50.633Z,98069.66
2023-01-30T14:59:39.429Z,98067.10
2023-01-30T15:02:13.138Z,98070.19
2023-01-30T15:05:02.083Z,98070.42
2023-01-30T15:08:16.478Z,98079.89
2023-01-30T15:10:44.366Z,98085.64
2023-01-30T15:13:34.897Z,98082.15
2023-01-30T15:16:15.698Z,98083.80
2023-01-30T15:19:03.915Z,98088.33
2023-01-30T15:21:47.046Z,98088.34
2023-01-30T15:24:45.280Z,98076.36
2023-01-30T15:27:13.219Z,98078.25
2023-01-30T15:30:22.187Z,98076.03
2023-01-30T15:33:07.492Z,98083.03
2023-01-30T15:35:35.306Z,98082.47
2023-01-30T15:38:03.216Z,98088.46
2023-01-30T15:40:31.676Z,98089.40
2023-01-30T15:43:13.225Z,98088.52
2023-01-30T15:46:03.972Z,98094.59
2023-01-30T15:49:02.849Z,98086.70
2023-01-30T15:51:33.289Z,98094.67
2023-01-30T15:54:08.835Z,98098.61
2023-01-30T15:56:39.915Z,98104.77
2023-01-30T15:59:12.244Z,98108.52
2023-01-30T16:01:40.113Z,98117.39
2023-01-30T16:04:26.173Z,98103.43
2023-01-30T16:06:54.236Z,98095.95
2023-01-30T16:09:24.538Z,98094.29
2023-01-30T16:11:52.761Z,98103.35
2023-01-30T16:14:22.720Z,98099.41
2023-01-30T16:16:57.114Z,98099.86
2023-01-30T16:19:32.146Z,98104.55
2023-01-30T16:22:05.961Z,98104.26
2023-01-30T16:24:36.791Z,98108.86
2023-01-30T16:27:07.630Z,98110.89
2023-01-30T16:29:50.538Z,98102.63
2023-01-30T16:32:25.100Z,98105.30
2023-01-30T16:35:27.263Z,98115.63
2023-01-30T16:37:57.722Z,98108.88
2023-01-30T16:40:33.201Z,98116.49
2023-01-30T16:43:03.551Z,98117.70
2023-01-30T16:45:34.396Z,98114.17
2023-01-30T16:48:18.370Z,98109.48
2023-01-30T16:50:48.715Z,98107.66
2023-01-30T16:53:23.161Z,98108.08
2023-01-30T16:56:15.107Z,98115.34
2023-01-30T16:58:48.252Z,98110.42
2023-01-30T17:01:16.470Z,98116.71
2023-01-30T17:03:52.331Z,98114.40
2023-01-30T17:06:26.175Z,98112.42
2023-01-30T17:08:55.121Z,98105.42
2023-01-30T17:11:31.202Z,98120.35
2023-01-30T17:14:20.154Z,98114.40
2023-01-30T17:17:03.840Z,98118.35
2023-01-30T17:19:32.204Z,98126.81
2023-01-30T17:22:02.883Z,98129.02
2023-01-30T17:24:31.183Z,98145.61
2023-01-30T17:27:04.159Z,98144.06
2023-01-30T17:29:42.701Z,98146.27
2023-01-30T17:32:15.338Z,98148.51
2023-01-30T17:34:43.488Z,98152.90
2023-01-30T17:37:16.573Z,98150.20
2023-01-30T17:39:44.627Z,98168.05
2023-01-30T17:42:13.898Z,98163.42
2023-01-30T17:44:41.726Z,98161.52
2023-01-30T17:47:12.197Z,98169.74
2023-01-30T17:49:40.404Z,98173.75
2023-01-30T17:52:08.714Z,98183.07
2023-01-30T17:54:36.659Z,98183.41
2023-01-30T17:57:06.859Z,98182.73
2023-01-30T17:59:34.951Z,98180.93
2023-01-30T18:02:03.433Z,98191.16
2023-01-30T18:04:31.287Z,98199.67
2023-01-30T18:07:04.357Z,98194.89
2023-01-30T18:09:32.443Z,98202.16
2023-01-30T18:12:00.321Z,98205.49
2023-01-30T18:14:28.311Z,98203.33
2023-01-30T18:17:00.156Z,98196.01
2023-01-30T18:19:29.650Z,98197.17
2023-01-30T18:21:58.426Z,98203.43
2023-01-30T18:24:26.412Z,98199.33
2023-01-30T18:26:54.409Z,98195.37
2023-01-30T18:29:22.553Z,98197.56
2023-01-30T18:31:50.887Z,98196.54
2023-01-30T18:34:18.846Z,98202.73
2023-01-30T18:36:47.030Z,98211.07
2023-01-30T18:39:14.858Z,98208.36
2023-01-30T18:41:42.707Z,98218.40
2023-01-30T18:44:10.719Z,98218.52
2023-01-30T18:46:39.025Z,98214.41
2023-01-30T18:49:08.293Z,98213.31
2023-01-30T18:51:36.325Z,98220.73
2023-01-30T18:54:04.159Z,98225.38
2023-01-30T18:56:34.235Z,98222.66
2023-01-30T18:59:04.527Z,98210.87
2023-01-30T19:01:36.694Z,98215.02
2023-01-30T19:04:07.387Z,98224.23
2023-01-30T19:06:37.405Z,98217.14
2023-01-30T19:09:06.217Z,98209.88
2023-01-30T19:11:52.950Z,98232.08
2023-01-30T19:14:20.799Z,98233.05
2023-01-30T19:16:50.760Z,98234.22
2023-01-30T19:19:18.937Z,98234.53
2023-01-30T19:21:47.715Z,98232.59
2023-01-30T19:24:16.199Z,98237.45
2023-01-30T19:26:44.144Z,98249.06
2023-01-30T19:29:12.130Z,98257.30
2023-01-30T19:31:40.589Z,98264.74
2023-01-30T19:34:08.974Z,98270.71
2023-01-30T19:36:36.826Z,98275.23
2023-01-30T19:39:06.241Z,98278.73
2023-01-30T19:41:36.757Z,98283.41
2023-01-30T19:44:06.881Z,98286.60
2023-01-30T19:46:35.430Z,98285.75
2023-01-30T19:49:03.892Z,98292.30
2023-01-30T19:51:34.413Z,98297.63
2023-01-30T19:54:06.131Z,98297.48
2023-01-30T19:56:34.662Z,98300.38
2023-01-30T19:59:03.442Z,98306.70
2023-01-30T20:01:35.470Z,98309.27
2023-01-30T20:04:05.240Z,98312.27
2023-01-30T20:06:35.102Z,98319.05
2023-01-30T20:09:07.587Z,98325.02
2023-01-30T20:11:37.283Z,98324.54
2023-01-30T20:14:07.285Z,98333.86
2023-01-30T20:16:36.362Z,98332.83
2023-01-30T20:19:07.291Z,98339.34
2023-01-30T20:21:36.039Z,98338.38
2023-01-30T20:24:04.698Z,98338.92
2023-01-30T20:26:35.342Z,98335.20
2023-01-30T20:29:04.391Z,98335.45
2023-01-30T20:31:34.571Z,98334.64
2023-01-30T20:34:04.171Z,98341.84
2023-01-30T20:36:32.345Z,98350.48
2023-01-30T20:39:06.489Z,98354.45
2023-01-30T20:41:36.546Z,98359.63
2023-01-30T20:44:07.179Z,98371.52
2023-01-30T20:46:41.573Z,98363.33
2023-01-30T20:49:21.905Z,98361.20
2023-01-30T20:51:52.004Z,98363.86
2023-01-30T20:54:22.603Z,98364.08
2023-01-30T20:56:53.370Z,98361.64
2023-01-30T20:59:24.264Z,98373.43
2023-01-30T21:01:53.097Z,98377.02
2023-01-30T21:04:22.327Z,98388.39
2023-01-30T21:06:50.214Z,98389.67
2023-01-30T21:09:21.257Z,98396.33
2023-01-30T21:11:51.129Z,98409.05
2023-01-30T21:14:19.388Z,98415.38
2023-01-30T21:16:47.858Z,98419.50
2023-01-30T21:19:17.338Z,98412.48
2023-01-30T21:21:51.384Z,98419.59
2023-01-30T21:24:25.085Z,98418.39
2023-01-30T21:26:53.562Z,98435.54
2023-01-30T21:29:24.466Z,98428.88
2023-01-30T21:31:53.262Z,98429.77
2023-01-30T21:34:21.667Z,98435.89
2023-01-30T21:37:08.208Z,98443.38
2023-01-30T21:39:54.608Z,98433.47
2023-01-30T21:42:41.317Z,98440.14
2023-01-30T21:45:09.309Z,98449.45
2023-01-30T21:47:37.335Z,98462.23
2023-01-30T21:50:05.640Z,98461.65
2023-01-30T21:52:33.589Z,98456.75
2023-01-30T21:55:01.441Z,98466.21
2023-01-30T21:57:29.397Z,98487.16
2023-01-30T21:59:57.241Z,98488.80
2023-01-30T22:02:25.050Z,98485.43
2023-01-30T22:04:52.923Z,98500.28
2023-01-30T22:07:20.755Z,98499.05
2023-01-30T22:09:49.099Z,98517.33
2023-01-30T22:12:16.980Z,98511.98
2023-01-30T22:14:44.905Z,98516.59
2023-01-30T22:17:12.890Z,98532.73
2023-01-30T22:19:40.914Z,98533.11
2023-01-30T22:22:08.826Z,98534.36
2023-01-30T22:24:36.656Z,98546.47
2023-01-30T22:27:04.473Z,98554.77
2023-01-30T22:29:32.458Z,98549.73
2023-01-30T22:32:00.327Z,98545.17
2023-01-30T22:34:28.189Z,98551.75
2023-01-30T22:36:55.985Z,98549.14
2023-01-30T22:39:23.796Z,98556.58
2023-01-30T22:41:51.657Z,98545.39
2023-01-30T22:44:19.588Z,98558.38
2023-01-30T22:46:50.841Z,98554.45
2023-01-30T22:49:18.658Z,98559.90
2023-01-30T22:51:46.570Z,98563.51
2023-01-30T22:54:18.323Z,98554.08
2023-01-30T22:56:48.763Z,98560.30
2023-01-30T22:59:16.901Z,98558.84
2023-01-30T23:01:47.797Z,98560.77
2023-01-30T23:04:20.878Z,98564.21
2023-01-30T23:06:51.363Z,98569.10
2023-01-30T23:09:21.721Z,98560.77
2023-01-30T23:12:14.746Z,98566.38
2023-01-30T23:14:43.196Z,98567.91
2023-01-30T23:17:30.151Z,98571.19
2023-01-30T23:19:58.003Z,98582.71
2023-01-30T23:22:25.801Z,98578.04
2023-01-30T23:24:53.737Z,98588.70
2023-01-30T23:27:21.724Z,98581.45
2023-01-30T23:29:49.671Z,98583.55
2023-01-30T23:32:19.998Z,98588.27
2023-01-30T23:34:48.309Z,98593.38
2023-01-30T23:37:16.559Z,98592.58
2023-01-30T23:39:45.167Z,98598.15
2023-01-30T23:42:13.015Z,98602.86
2023-01-30T23:44:40.858Z,98605.88
2023-01-30T23:47:08.664Z,98598.90
2023-01-30T23:49:36.447Z,98593.27
2023-01-30T23:52:04.354Z,98595.15
2023-01-30T23:54:32.195Z,98605.30
2023-01-30T23:57:00.037Z,98609.96
2023-01-30T23:59:27.879Z,98598.61
